Time;durP1;ratioP1;P1;durP2;ratioP2;P2;SDS_P1;SDS_P2;PMS_P1;PMS_P2;Temp;Humidity;BMP_temperature;BMP_pressure;BME280_temperature;BME280_humidity;BME280_pressure;Samples;Min_cycle;Max_cycle;Signal;HPM_P1;HPM_P2
2022/11/22 05:00:41;;;;;;;;;;;;;;;4.84;100.00;97699.97;6222650;22;19926;-81
2022/11/22 05:03:06;;;;;;;;;;;;;;;4.90;100.00;97693.56;6362028;22;20272;-83
2022/11/22 05:05:42;;;;;;;;;;;;;;;4.91;100.00;97695.25;6340248;22;20031;-83
2022/11/22 05:08:08;;;;;;;;;;;;;;;4.91;100.00;97703.13;6340357;22;20039;-81
2022/11/22 05:11:17;;;;;;;;;;;;;;;4.90;100.00;97701.44;6340157;22;19963;-83
2022/11/22 05:13:24;;;;;;;;;;;;;;;4.96;100.00;97710.75;6336904;22;19906;-84
2022/11/22 05:15:52;;;;;;;;;;;;;;;4.95;100.00;97709.09;6338364;22;20284;-84
2022/11/22 05:18:17;;;;;;;;;;;;;;;4.96;100.00;97708.97;6340116;22;19917;-85
2022/11/22 05:20:43;;;;;;;;;;;;;;;4.95;100.00;97703.84;6339868;22;20234;-84
2022/11/22 05:25:52;;;;;;;;;;;;;;;5.01;100.00;97704.34;6339521;22;19918;-84
2022/11/22 05:28:17;;;;;;;;;;;;;;;5.00;100.00;97702.63;6339912;22;19911;-85
2022/11/22 05:30:43;;;;;;;;;;;;;;;4.99;100.00;97706.19;6337023;22;19941;-85
2022/11/22 05:33:08;;;;;;;;;;;;;;;5.03;100.00;97706.88;6338176;22;20245;-85
2022/11/22 05:35:33;;;;;;;;;;;;;;;5.01;100.00;97709.59;6339921;22;20183;-85
2022/11/22 05:37:59;;;;;;;;;;;;;;;5.02;100.00;97710.44;6339708;22;19911;-85
2022/11/22 05:40:24;;;;;;;;;;;;;;;5.03;100.00;97714.78;6338325;22;19980;-84
2022/11/22 05:42:49;;;;;;;;;;;;;;;5.04;100.00;97719.06;6339742;22;20322;-85
2022/11/22 05:45:15;;;;;;;;;;;;;;;5.05;100.00;97715.53;6338171;22;19914;-85
2022/11/22 05:47:40;;;;;;;;;;;;;;;5.04;100.00;97725.19;6337989;22;19934;-86
2022/11/22 05:50:06;;;;;;;;;;;;;;;5.07;100.00;97709.28;6340047;22;20276;-86
2022/11/22 05:52:31;;;;;;;;;;;;;;;5.05;100.00;97716.38;6339853;22;19910;-83
2022/11/22 05:54:56;;;;;;;;;;;;;;;5.04;100.00;97714.69;6338385;22;19910;-82
2022/11/22 05:57:21;;;;;;;;;;;;;;;5.07;100.00;97718.91;6339776;22;19915;-83
2022/11/22 05:59:47;;;;;;;;;;;;;;;5.10;100.00;97716.13;6338053;22;20246;-83
2022/11/22 06:02:12;;;;;;;;;;;;;;;5.12;100.00;97719.50;6337979;22;19922;-83
2022/11/22 06:04:37;;;;;;;;;;;;;;;5.11;100.00;97723.06;6339593;22;20256;-83
2022/11/22 06:07:02;;;;;;;;;;;;;;;5.10;100.00;97724.00;6339481;22;19907;-83
2022/11/22 06:09:28;;;;;;;;;;;;;;;5.11;100.00;97720.44;6338038;22;19910;-83
2022/11/22 06:11:53;;;;;;;;;;;;;;;5.13;100.00;97723.84;6340273;22;20211;-84
2022/11/22 06:14:18;;;;;;;;;;;;;;;5.14;100.00;97729.91;6337805;22;19917;-84
2022/11/22 06:16:44;;;;;;;;;;;;;;;5.14;100.00;97727.28;6338003;22;20239;-84
2022/11/22 06:19:11;;;;;;;;;;;;;;;5.15;100.00;97732.47;6338086;22;19911;-86
2022/11/22 06:21:36;;;;;;;;;;;;;;;5.08;100.00;97736.38;6339597;22;19938;-84
2022/11/22 06:24:02;;;;;;;;;;;;;;;5.06;100.00;97744.31;6337806;22;19911;-84
2022/11/22 06:26:27;;;;;;;;;;;;;;;5.07;100.00;97753.03;6339410;22;20406;-84
2022/11/22 06:28:53;;;;;;;;;;;;;;;5.11;100.00;97754.59;6337604;22;19915;-83
2022/11/22 06:31:19;;;;;;;;;;;;;;;5.13;100.00;97754.50;6337914;22;19926;-84
2022/11/22 06:33:45;;;;;;;;;;;;;;;5.05;100.00;97753.13;6339249;22;19911;-84
2022/11/22 06:36:18;;;;;;;;;;;;;;;5.08;100.00;97750.31;6339303;22;19917;-84
2022/11/22 06:38:44;;;;;;;;;;;;;;;5.09;100.00;97743.31;6364107;22;19917;-84
2022/11/22 06:41:10;;;;;;;;;;;;;;;5.09;100.00;97754.66;6339255;22;19989;-84
2022/11/22 06:43:36;;;;;;;;;;;;;;;5.08;100.00;97742.44;6339453;22;19911;-84
2022/11/22 06:46:02;;;;;;;;;;;;;;;5.13;100.00;97739.59;6362376;22;20234;-84
2022/11/22 06:48:31;;;;;;;;;;;;;;;5.07;100.00;97735.53;6339237;22;19915;-84
2022/11/22 06:50:59;;;;;;;;;;;;;;;5.12;100.00;97734.41;6339127;22;20333;-84
2022/11/22 06:53:28;;;;;;;;;;;;;;;5.05;100.00;97736.53;6339428;22;19993;-84
2022/11/22 06:55:58;;;;;;;;;;;;;;;5.04;100.00;97743.56;6339300;22;19911;-84
2022/11/22 06:58:24;;;;;;;;;;;;;;;5.07;100.00;97730.28;6339335;22;19964;-84
2022/11/22 07:00:49;;;;;;;;;;;;;;;5.08;100.00;97737.19;6337309;22;19910;-84
2022/11/22 07:03:14;;;;;;;;;;;;;;;5.05;100.00;97742.63;6339140;22;20374;-83
2022/11/22 07:05:48;;;;;;;;;;;;;;;5.11;100.00;97738.00;6339306;22;20329;-84
2022/11/22 07:08:13;;;;;;;;;;;;;;;5.08;100.00;97736.38;6337858;22;20327;-84
2022/11/22 07:10:38;;;;;;;;;;;;;;;5.13;100.00;97747.47;6339175;22;19991;-84
2022/11/22 07:13:03;;;;;;;;;;;;;;;5.08;100.00;97744.25;6339097;22;20238;-83
2022/11/22 07:15:29;;;;;;;;;;;;;;;5.13;100.00;97747.47;6337244;22;19910;-83
2022/11/22 07:17:54;;;;;;;;;;;;;;;5.16;100.00;97754.34;6339022;22;19956;-83
2022/11/22 07:20:19;;;;;;;;;;;;;;;5.11;100.00;97754.59;6339143;22;20386;-83
2022/11/22 07:22:46;;;;;;;;;;;;;;;5.14;100.00;97764.91;6339135;22;19911;-83
2022/11/22 07:25:11;;;;;;;;;;;;;;;5.11;100.00;97762.47;6363544;22;19989;-83
2022/11/22 07:27:36;;;;;;;;;;;;;;;5.08;100.00;97755.56;6338896;22;19996;-83
2022/11/22 07:30:02;;;;;;;;;;;;;;;5.12;100.00;97764.13;6337071;22;19911;-83
2022/11/22 07:32:27;;;;;;;;;;;;;;;5.07;100.00;97772.28;6339490;22;20326;-83
2022/11/22 07:34:52;;;;;;;;;;;;;;;5.11;100.00;97783.47;6338871;22;19917;-83
2022/11/22 07:37:17;;;;;;;;;;;;;;;5.11;100.00;97772.97;6338891;22;19910;-83
2022/11/22 08:56:47;;;;;;;;;;;;;;;5.72;100.00;97796.88;6308367;22;19921;-86
2022/11/22 08:59:19;;;;;;;;;;;;;;;5.75;100.00;97789.66;6309023;22;19990;-90
2022/11/22 09:01:44;;;;;;;;;;;;;;;5.78;100.00;97792.09;6281572;22;19915;-87
2022/11/22 09:04:09;;;;;;;;;;;;;;;5.77;100.00;97782.50;6309184;22;19911;-89
2022/11/22 09:06:35;;;;;;;;;;;;;;;5.78;100.00;97791.28;6309074;22;19917;-89
2022/11/22 09:09:00;;;;;;;;;;;;;;;5.80;100.00;97786.78;6306895;22;19910;-88
2022/11/22 09:11:25;;;;;;;;;;;;;;;5.82;100.00;97779.63;6281531;22;19915;-85
2022/11/22 09:14:12;;;;;;;;;;;;;;;5.85;100.00;97783.88;6282213;22;19918;-88
2022/11/22 09:19:24;;;;;;;;;;;;;;;6.73;100.00;97783.25;6310483;22;20242;-95
2022/11/22 09:21:59;;;;;;;;;;;;;;;;;;;;;
2022/11/22 09:24:25;;;;;;;;;;;;;;;6.49;100.00;97795.19;6308059;22;20390;-91
2022/11/22 09:26:59;;;;;;;;;;;;;;;6.50;100.00;97787.22;6308904;22;19946;-92
2022/11/22 09:29:25;;;;;;;;;;;;;;;6.50;100.00;97775.84;6280594;22;19911;-91
2022/11/22 09:31:50;;;;;;;;;;;;;;;7.40;100.00;97777.47;6309421;22;20225;-94
2022/11/22 09:34:16;;;;;;;;;;;;;;;8.00;100.00;97778.13;6308050;22;19911;-87
2022/11/22 09:36:44;;;;;;;;;;;;;;;7.62;100.00;97784.88;6307584;22;19946;-88
2022/11/22 09:42:19;;;;;;;;;;;;;;;6.86;100.00;97777.22;6173975;22;19931;-90
2022/11/22 09:44:54;;;;;;;;;;;;;;;6.74;100.00;97778.81;6277956;22;20224;-92
2022/11/22 09:47:38;;;;;;;;;;;;;;;6.72;100.00;97773.66;6254409;22;19912;-87
2022/11/22 09:50:15;;;;;;;;;;;;;;;6.64;100.00;97762.72;6253976;22;19913;-89
2022/11/22 09:55:48;;;;;;;;;;;;;;;6.59;100.00;97759.53;6212747;23;19916;-88
2022/11/22 09:58:20;;;;;;;;;;;;;;;6.59;100.00;97764.78;6243656;22;19912;-89
2022/11/22 10:00:45;;;;;;;;;;;;;;;6.64;100.00;97767.16;6150976;23;19913;-89
2022/11/22 10:03:20;;;;;;;;;;;;;;;6.60;100.00;97761.22;6148906;23;19986;-93
2022/11/22 10:05:49;;;;;;;;;;;;;;;6.59;100.00;97774.44;6152858;23;19915;-90
2022/11/22 10:08:24;;;;;;;;;;;;;;;6.58;100.00;97773.63;6147762;23;20317;-87
2022/11/22 10:11:33;;;;;;;;;;;;;;;;;;;;;
2022/11/22 10:14:11;;;;;;;;;;;;;;;6.59;100.00;97754.28;6156190;22;19913;-90
2022/11/22 10:17:05;;;;;;;;;;;;;;;6.64;100.00;97761.91;6255495;22;19913;-89
2022/11/22 10:19:36;;;;;;;;;;;;;;;6.66;100.00;97775.81;6158510;22;19935;-91
2022/11/22 10:22:09;;;;;;;;;;;;;;;6.67;100.00;97759.91;6253970;22;19917;-89
2022/11/22 10:24:34;;;;;;;;;;;;;;;6.65;100.00;97753.03;6249979;22;19944;-88
2022/11/22 10:26:59;;;;;;;;;;;;;;;6.67;100.00;97756.41;6151999;23;19920;-90
2022/11/22 10:29:54;;;;;;;;;;;;;;;6.65;100.00;97748.66;6254556;22;19919;-92
2022/11/22 10:32:26;;;;;;;;;;;;;;;6.67;100.00;97757.28;6126089;23;19919;-90
2022/11/22 10:35:10;;;;;;;;;;;;;;;6.70;100.00;97749.22;6152252;23;20244;-93
2022/11/22 10:37:45;;;;;;;;;;;;;;;6.76;100.00;97760.31;6251956;22;20286;-92
2022/11/22 10:40:42;;;;;;;;;;;;;;;6.72;100.00;97760.50;6149791;23;20339;-88
2022/11/22 10:43:10;;;;;;;;;;;;;;;6.76;100.00;97760.31;6128975;22;19979;-87
2022/11/22 10:45:42;;;;;;;;;;;;;;;6.82;100.00;97757.31;6151128;23;19927;-92
2022/11/22 10:48:07;;;;;;;;;;;;;;;6.80;100.00;97761.84;6152049;23;19974;-91
2022/11/22 10:50:52;;;;;;;;;;;;;;;6.84;100.00;97760.69;6252808;22;19917;-90
2022/11/22 10:53:20;;;;;;;;;;;;;;;6.85;100.00;97759.75;6253129;22;19912;-93
2022/11/22 10:55:46;;;;;;;;;;;;;;;6.85;100.00;97754.50;6254734;22;19913;-90
2022/11/22 10:58:30;;;;;;;;;;;;;;;6.86;100.00;97756.19;6254408;22;19992;-92
2022/11/22 11:01:05;;;;;;;;;;;;;;;6.86;100.00;97743.00;6255006;22;19913;-89
2022/11/22 11:03:36;;;;;;;;;;;;;;;6.86;100.00;97750.91;6152402;23;19913;-95
2022/11/22 11:06:20;;;;;;;;;;;;;;;6.91;100.00;97748.88;6252223;22;20359;-91
2022/11/22 11:08:51;;;;;;;;;;;;;;;6.95;100.00;97753.00;6150556;23;19920;-91
2022/11/22 11:11:17;;;;;;;;;;;;;;;6.94;100.00;97755.72;6253760;22;19913;-93
2022/11/22 11:13:45;;;;;;;;;;;;;;;6.94;100.00;97753.97;6255076;22;19909;-89
2022/11/22 11:16:16;;;;;;;;;;;;;;;6.94;100.00;97748.69;6252634;22;19912;-95
2022/11/22 11:18:51;;;;;;;;;;;;;;;6.96;100.00;97752.06;6151600;23;19917;-91
2022/11/22 11:21:19;;;;;;;;;;;;;;;7.01;100.00;97742.09;6255252;22;19995;-93
2022/11/22 11:23:44;;;;;;;;;;;;;;;6.99;100.00;97749.25;6276948;22;19908;-92
2022/11/22 11:26:21;;;;;;;;;;;;;;;9.91;100.00;97738.75;6152351;23;19920;-92
2022/11/22 11:28:47;;;;;;;;;;;;;;;8.60;100.00;97739.06;6262775;22;19924;-93
2022/11/22 11:31:14;;;;;;;;;;;;;;;7.90;100.00;97742.75;6285795;22;20287;-94
2022/11/22 11:37:00;;;;;;;;;;;;;;;7.46;100.00;97745.44;6141251;23;20251;-92
2022/11/22 11:39:54;;;;;;;;;;;;;;;7.43;100.00;97745.66;6228297;22;19912;-89
2022/11/22 11:45:15;;;;;;;;;;;;;;;7.35;100.00;97741.81;6136110;22;19920;-92
2022/11/22 11:48:06;;;;;;;;;;;;;;;7.32;100.00;97732.28;6279543;22;20403;-94
2022/11/22 11:50:34;;;;;;;;;;;;;;;7.31;100.00;97735.91;6229585;22;19970;-91
2022/11/22 11:53:04;;;;;;;;;;;;;;;7.30;100.00;97733.34;6253221;22;19919;-91
2022/11/22 11:55:31;;;;;;;;;;;;;;;7.29;100.00;97729.84;6134263;22;19921;-90
2022/11/22 11:58:00;;;;;;;;;;;;;;;7.32;100.00;97729.66;6279698;22;20381;-89
2022/11/22 12:00:27;;;;;;;;;;;;;;;7.33;100.00;97733.16;6150264;23;19916;-88
2022/11/22 12:02:59;;;;;;;;;;;;;;;7.34;100.00;97740.97;6253317;22;19986;-91
2022/11/22 12:05:27;;;;;;;;;;;;;;;7.35;100.00;97736.53;6254896;22;19974;-91
2022/11/22 12:07:55;;;;;;;;;;;;;;;7.35;100.00;97732.09;6150394;23;19917;-90
2022/11/22 12:10:39;;;;;;;;;;;;;;;7.35;100.00;97728.63;6251957;22;19948;-89
2022/11/22 12:13:20;;;;;;;;;;;;;;;7.38;100.00;97739.00;6254549;22;19958;-92
2022/11/22 12:16:49;;;;;;;;;;;;;;;7.37;100.00;97740.78;6151409;23;19913;-90
2022/11/22 12:18:59;;;;;;;;;;;;;;;7.37;100.00;97735.50;6162072;22;19917;-92
2022/11/22 12:21:43;;;;;;;;;;;;;;;7.36;100.00;97739.09;6254673;22;20532;-92
2022/11/22 12:24:14;;;;;;;;;;;;;;;7.37;100.00;97738.16;6253368;22;20209;-90
2022/11/22 12:26:40;;;;;;;;;;;;;;;7.39;100.00;97738.06;6253180;22;19913;-93
2022/11/22 12:29:05;;;;;;;;;;;;;;;7.41;100.00;97737.00;6254710;22;19912;-93
2022/11/22 12:34:48;;;;;;;;;;;;;;;7.42;100.00;97741.34;6119843;22;19970;-92
2022/11/22 12:37:26;;;;;;;;;;;;;;;7.45;100.00;97746.41;6282390;22;20003;-93
2022/11/22 12:40:14;;;;;;;;;;;;;;;7.43;100.00;97739.53;6280539;22;19912;-93
2022/11/22 12:42:44;;;;;;;;;;;;;;;7.43;100.00;97729.00;6282524;22;19944;-92
2022/11/22 12:45:12;;;;;;;;;;;;;;;7.48;100.00;97733.97;6255961;22;19917;-92
2022/11/22 12:47:40;;;;;;;;;;;;;;;7.49;100.00;97733.06;6265895;22;19913;-94
2022/11/22 12:50:08;;;;;;;;;;;;;;;7.49;100.00;97743.59;6280762;22;20371;-92
2022/11/22 12:52:45;;;;;;;;;;;;;;;7.50;100.00;97740.00;6255827;22;19913;-89
2022/11/22 12:55:10;;;;;;;;;;;;;;;7.52;100.00;97749.50;6254884;22;19913;-89
2022/11/22 12:57:42;;;;;;;;;;;;;;;7.53;100.00;97756.47;6256258;22;19920;-92
2022/11/22 13:00:18;;;;;;;;;;;;;;;7.54;100.00;97746.78;6255853;22;20316;-93
2022/11/22 13:03:02;;;;;;;;;;;;;;;7.55;100.00;97749.31;6255356;22;19919;-91
2022/11/22 13:05:28;;;;;;;;;;;;;;;7.58;100.00;97750.94;6255112;22;19919;-92
2022/11/22 13:08:14;;;;;;;;;;;;;;;7.61;100.00;97758.59;6254936;22;19913;-93
2022/11/22 13:10:44;;;;;;;;;;;;;;;7.62;100.00;97757.69;6256007;22;19912;-93
2022/11/22 13:13:18;;;;;;;;;;;;;;;7.63;100.00;97754.13;6254577;22;19936;-93
2022/11/22 13:15:44;;;;;;;;;;;;;;;7.64;100.00;97758.41;6254940;22;19913;-92
2022/11/22 13:18:13;;;;;;;;;;;;;;;7.64;100.00;97743.47;6255619;22;20339;-93
2022/11/22 13:20:43;;;;;;;;;;;;;;;7.66;100.00;97746.00;6256081;22;19913;-90
2022/11/22 13:23:14;;;;;;;;;;;;;;;7.66;100.00;97756.56;6153435;23;20645;-91
2022/11/22 13:25:55;;;;;;;;;;;;;;;7.68;100.00;97751.19;6151592;23;19916;-92
2022/11/22 13:28:24;;;;;;;;;;;;;;;7.71;100.00;97738.66;6255078;22;19913;-93
2022/11/22 13:31:03;;;;;;;;;;;;;;;7.71;100.00;97753.63;6253098;22;20328;-91
2022/11/22 13:33:28;;;;;;;;;;;;;;;7.74;100.00;97749.00;6256272;22;19939;-91
2022/11/22 13:36:22;;;;;;;;;;;;;;;7.76;100.00;97755.00;6255663;22;20276;-93
2022/11/22 13:38:47;;;;;;;;;;;;;;;7.78;100.00;97754.91;6253986;22;20388;-93
2022/11/22 13:41:35;;;;;;;;;;;;;;;7.80;100.00;97764.44;6153201;23;19940;-94
2022/11/22 13:44:19;;;;;;;;;;;;;;;7.82;100.00;97754.63;6255161;22;19913;-94
2022/11/22 13:47:00;;;;;;;;;;;;;;;7.84;100.00;97761.59;6255880;22;19926;-93
2022/11/22 13:49:36;;;;;;;;;;;;;;;7.85;100.00;97761.50;6255558;22;20288;-93
2022/11/22 13:52:04;;;;;;;;;;;;;;;7.85;100.00;97760.63;6255765;22;20317;-93
2022/11/22 13:54:37;;;;;;;;;;;;;;;7.86;100.00;97762.34;6255046;22;19913;-94
2022/11/22 13:57:04;;;;;;;;;;;;;;;7.86;100.00;97762.34;6255053;22;19988;-89
2022/11/22 13:59:30;;;;;;;;;;;;;;;7.90;100.00;97758.59;6255490;22;19912;-90
2022/11/22 14:01:55;;;;;;;;;;;;;;;7.93;100.00;97763.63;6253951;22;19928;-94
2022/11/22 14:04:24;;;;;;;;;;;;;;;7.92;100.00;97762.78;6254038;22;19913;-93
2022/11/22 14:06:49;;;;;;;;;;;;;;;7.94;100.00;97767.97;6255834;22;19920;-93
2022/11/22 14:09:29;;;;;;;;;;;;;;;7.96;100.00;97764.31;6253606;22;19917;-91
2022/11/22 14:12:00;;;;;;;;;;;;;;;7.97;100.00;97762.50;6254758;22;19984;-93
2022/11/22 14:14:37;;;;;;;;;;;;;;;7.98;100.00;97770.31;6256029;22;19913;-92
2022/11/22 14:17:21;;;;;;;;;;;;;;;7.98;100.00;97764.19;6255785;22;20248;-96
2022/11/22 14:19:49;;;;;;;;;;;;;;;8.01;100.00;97761.38;6255997;22;19913;-92
2022/11/22 14:22:32;;;;;;;;;;;;;;;8.00;100.00;97767.56;6152415;23;19953;-90
2022/11/22 14:25:14;;;;;;;;;;;;;;;8.05;100.00;97762.00;6254170;22;19959;-96
2022/11/22 14:27:45;;;;;;;;;;;;;;;8.06;100.00;97761.91;6255178;22;19916;-92
2022/11/22 14:30:29;;;;;;;;;;;;;;;8.08;100.00;97757.38;6255354;22;19912;-93
2022/11/22 14:33:02;;;;;;;;;;;;;;;8.09;100.00;97755.56;6255717;22;19917;-91
2022/11/22 14:35:32;;;;;;;;;;;;;;;8.13;100.00;97754.44;6153126;23;19913;-94
2022/11/22 14:38:06;;;;;;;;;;;;;;;8.14;100.00;97756.97;6151509;23;19920;-89
2022/11/22 14:40:32;;;;;;;;;;;;;;;8.14;100.00;97759.63;6152984;23;19935;-94
2022/11/22 14:43:04;;;;;;;;;;;;;;;8.17;100.00;97762.06;6152431;23;20308;-93
2022/11/22 14:45:37;;;;;;;;;;;;;;;8.17;100.00;97762.06;6255156;22;19913;-93
2022/11/22 14:48:23;;;;;;;;;;;;;;;8.18;100.00;97758.47;6255217;22;19921;-94
2022/11/22 14:51:00;;;;;;;;;;;;;;;8.22;100.00;97768.81;6255088;22;19966;-93
2022/11/22 14:53:29;;;;;;;;;;;;;;;8.90;100.00;97760.78;6152037;23;19952;-91
2022/11/22 14:56:01;;;;;;;;;;;;;;;8.72;100.00;97775.22;6150314;23;20252;-92
2022/11/22 14:58:28;;;;;;;;;;;;;;;8.52;100.00;97772.13;6254203;22;19995;-92
2022/11/22 15:00:53;;;;;;;;;;;;;;;8.45;100.00;97764.72;6254779;22;19913;-91
2022/11/22 15:03:39;;;;;;;;;;;;;;;8.42;100.00;97776.25;6152315;23;19919;-90
2022/11/22 15:06:20;;;;;;;;;;;;;;;8.43;100.00;97774.50;6254830;22;19966;-90
2022/11/22 15:08:54;;;;;;;;;;;;;;;8.42;100.00;97776.25;6253568;22;19923;-89
2022/11/22 15:11:19;;;;;;;;;;;;;;;8.44;100.00;97773.56;6254778;22;19913;-92
2022/11/22 15:14:12;;;;;;;;;;;;;;;8.42;100.00;97780.72;6150287;23;19962;-93
2022/11/22 15:17:28;;;;;;;;;;;;;;;8.43;100.00;97780.63;6253065;22;19913;-96
2022/11/22 15:19:55;;;;;;;;;;;;;;;8.45;100.00;97778.72;6066404;23;19916;-96
2022/11/22 15:22:29;;;;;;;;;;;;;;;8.46;100.00;97783.06;6152341;23;19913;-95
2022/11/22 15:24:56;;;;;;;;;;;;;;;8.46;100.00;97783.06;6150636;23;19913;-92
2022/11/22 15:27:29;;;;;;;;;;;;;;;8.47;100.00;97784.78;6151368;23;20225;-89
2022/11/22 15:30:07;;;;;;;;;;;;;;;8.46;100.00;97782.25;6152370;23;19913;-94
2022/11/22 15:32:32;;;;;;;;;;;;;;;8.47;100.00;97787.41;6151567;23;19912;-92
2022/11/22 15:34:57;;;;;;;;;;;;;;;8.49;100.00;97797.88;6151816;23;19913;-89
2022/11/22 15:37:29;;;;;;;;;;;;;;;8.49;100.00;97804.00;6280489;22;19917;-93
2022/11/22 15:39:54;;;;;;;;;;;;;;;8.48;100.00;97791.72;6253670;22;19995;-90
2022/11/22 15:42:20;;;;;;;;;;;;;;;8.51;100.00;97791.53;6152128;23;19963;-90
2022/11/22 15:44:46;;;;;;;;;;;;;;;8.52;100.00;97798.50;6254471;22;19916;-88
2022/11/22 15:47:15;;;;;;;;;;;;;;;8.53;100.00;97792.25;6255178;22;20232;-91
2022/11/22 15:49:41;;;;;;;;;;;;;;;8.56;100.00;97803.59;6253269;22;19916;-93
2022/11/22 15:52:19;;;;;;;;;;;;;;;8.57;100.00;97800.84;6151686;23;19920;-92
2022/11/22 15:54:45;;;;;;;;;;;;;;;8.57;100.00;97811.41;6149969;23;19917;-93
2022/11/22 15:57:23;;;;;;;;;;;;;;;8.61;100.00;97812.03;6254602;22;19916;-91
2022/11/22 15:59:49;;;;;;;;;;;;;;;8.60;100.00;97815.63;6253587;22;19912;-94
2022/11/22 16:02:17;;;;;;;;;;;;;;;8.59;100.00;97816.59;6150610;23;19920;-94
2022/11/22 16:04:56;;;;;;;;;;;;;;;8.60;100.00;97819.13;6253003;22;19967;-90
2022/11/22 16:07:44;;;;;;;;;;;;;;;8.62;100.00;97819.03;6150405;23;19917;-93
2022/11/22 16:10:43;;;;;;;;;;;;;;;8.63;100.00;97831.25;6149133;23;19912;-94
2022/11/22 16:13:10;;;;;;;;;;;;;;;8.65;100.00;97834.66;6088873;23;19916;-96
2022/11/22 16:15:35;;;;;;;;;;;;;;;8.64;100.00;97833.81;6152558;23;19939;-92
2022/11/22 16:18:10;;;;;;;;;;;;;;;8.67;100.00;97832.75;6279929;22;20329;-91
2022/11/22 16:20:36;;;;;;;;;;;;;;;8.69;100.00;97846.69;6149551;23;19970;-90
2022/11/22 16:23:07;;;;;;;;;;;;;;;8.68;100.00;97839.72;6148459;23;19917;-90
2022/11/22 16:25:36;;;;;;;;;;;;;;;8.69;100.00;97839.63;6149600;22;19928;-91
2022/11/22 16:28:16;;;;;;;;;;;;;;;8.69;100.00;97846.69;6150594;23;19920;-89
2022/11/22 16:30:42;;;;;;;;;;;;;;;8.69;100.00;97847.53;6151888;23;19944;-89
2022/11/22 16:33:11;;;;;;;;;;;;;;;8.73;100.00;97864.88;6253782;22;20320;-91
2022/11/22 16:35:59;;;;;;;;;;;;;;;8.75;100.00;97856.88;6255551;22;19920;-96
2022/11/22 16:38:32;;;;;;;;;;;;;;;8.75;100.00;97859.50;6150050;23;20332;-91
2022/11/22 16:41:42;;;;;;;;;;;;;;;;;;;;;
2022/11/22 16:44:12;;;;;;;;;;;;;;;8.77;100.00;97860.25;6151480;23;19995;-92
2022/11/22 16:46:40;;;;;;;;;;;;;;;8.81;100.00;97867.03;6151075;23;19912;-91
2022/11/22 16:49:16;;;;;;;;;;;;;;;8.80;100.00;97859.22;6150961;23;19913;-90
2022/11/22 16:51:43;;;;;;;;;;;;;;;8.82;100.00;97870.50;6150631;23;20384;-90
2022/11/22 16:54:12;;;;;;;;;;;;;;;8.82;100.00;97870.50;6148843;23;20205;-91
2022/11/22 16:56:38;;;;;;;;;;;;;;;8.82;100.00;97870.50;6254109;22;19913;-94
2022/11/22 16:59:03;;;;;;;;;;;;;;;8.83;100.00;97861.66;6151534;23;19916;-90
2022/11/22 17:01:31;;;;;;;;;;;;;;;8.83;100.00;97883.59;6151282;23;20316;-88
2022/11/22 17:03:57;;;;;;;;;;;;;;;7.33;100.00;97876.28;6152355;22;20279;-95
2022/11/22 17:06:31;;;;;;;;;;;;;;;6.61;100.00;97883.13;6255478;22;19917;-92
2022/11/22 17:08:57;;;;;;;;;;;;;;;6.15;100.00;97889.16;6151485;23;19935;-94
2022/11/22 17:11:24;;;;;;;;;;;;;;;5.96;100.00;97892.78;6253561;22;20354;-94
2022/11/22 17:14:23;;;;;;;;;;;;;;;5.75;100.00;97888.69;6256730;22;19928;-93
2022/11/22 17:17:17;;;;;;;;;;;;;;;5.67;100.00;97896.13;6281056;22;19912;-93
2022/11/22 17:19:42;;;;;;;;;;;;;;;5.56;100.00;97894.91;6228557;22;20284;-90
2022/11/22 17:22:08;;;;;;;;;;;;;;;5.35;100.00;97901.28;6286871;22;19933;-90
2022/11/22 17:24:33;;;;;;;;;;;;;;;5.37;100.00;97902.88;6306828;22;19911;-89
2022/11/22 17:26:58;;;;;;;;;;;;;;;5.21;100.00;97904.59;6308468;22;20287;-91
2022/11/22 17:29:23;;;;;;;;;;;;;;;5.23;100.00;97911.50;6308650;22;20349;-91
2022/11/22 17:31:49;;;;;;;;;;;;;;;5.23;100.00;97914.13;6332895;22;19911;-89
2022/11/22 17:34:14;;;;;;;;;;;;;;;5.05;100.00;97912.41;6308028;22;19990;-91
2022/11/22 17:37:09;;;;;;;;;;;;;;;5.08;100.00;97914.88;6308224;22;19917;-91
2022/11/22 17:39:34;;;;;;;;;;;;;;;5.15;100.00;97926.75;6280074;22;19914;-92
2022/11/22 17:42:00;;;;;;;;;;;;;;;6.05;100.00;97925.66;6332780;22;20212;-92
2022/11/22 17:44:26;;;;;;;;;;;;;;;6.52;100.00;97927.41;6308093;22;19907;-94
2022/11/22 17:46:51;;;;;;;;;;;;;;;6.80;100.00;97919.78;6333636;22;20307;-95
2022/11/22 17:49:16;;;;;;;;;;;;;;;6.99;100.00;97922.16;6332396;22;20219;-93
2022/11/22 17:51:42;;;;;;;;;;;;;;;7.16;100.00;97921.19;6306924;22;19911;-89
2022/11/22 17:54:10;;;;;;;;;;;;;;;7.31;100.00;97920.31;6306343;22;19911;-90
2022/11/22 17:56:36;;;;;;;;;;;;;;;7.43;100.00;97929.25;6334904;22;19911;-90
2022/11/22 17:59:01;;;;;;;;;;;;;;;7.54;100.00;97933.91;6332277;22;19926;-92
2022/11/22 18:01:32;;;;;;;;;;;;;;;7.64;100.00;97927.13;6306457;22;19918;-89
2022/11/22 18:04:03;;;;;;;;;;;;;;;7.72;100.00;97931.94;6307156;22;19911;-94
2022/11/22 18:06:30;;;;;;;;;;;;;;;7.81;100.00;97929.59;6332806;22;19998;-91
2022/11/22 18:08:55;;;;;;;;;;;;;;;7.89;100.00;97930.91;6305284;22;20326;-91
2022/11/22 18:11:20;;;;;;;;;;;;;;;7.94;100.00;97931.47;6306270;22;19921;-87
2022/11/22 18:13:46;;;;;;;;;;;;;;;8.00;100.00;97937.22;6331811;22;19957;-89
2022/11/22 18:16:13;;;;;;;;;;;;;;;8.05;100.00;97941.38;6307335;22;20318;-89
2022/11/22 18:18:39;;;;;;;;;;;;;;;8.09;100.00;97933.19;6307787;22;19911;-92
2022/11/22 18:21:06;;;;;;;;;;;;;;;8.17;100.00;97928.25;6307542;22;20041;-89
2022/11/22 18:23:33;;;;;;;;;;;;;;;8.22;100.00;97932.38;6182776;22;19917;-91
2022/11/22 18:25:59;;;;;;;;;;;;;;;8.24;100.00;97934.00;6179648;23;19947;-93
2022/11/22 18:28:24;;;;;;;;;;;;;;;8.28;100.00;97939.91;6182681;23;19919;-90
2022/11/22 18:30:49;;;;;;;;;;;;;;;8.30;100.00;97941.53;6179515;23;19940;-92
2022/11/22 18:33:15;;;;;;;;;;;;;;;8.34;100.00;97939.53;6205435;23;20308;-91
2022/11/22 18:35:40;;;;;;;;;;;;;;;8.38;100.00;97943.69;6180024;23;19975;-90
2022/11/22 18:38:05;;;;;;;;;;;;;;;8.41;100.00;97948.78;6179249;23;20344;-88
2022/11/22 18:40:31;;;;;;;;;;;;;;;8.44;100.00;97953.91;6180909;23;19969;-88
2022/11/22 18:42:56;;;;;;;;;;;;;;;8.47;100.00;97947.56;6180598;23;20315;-87
2022/11/22 18:45:48;;;;;;;;;;;;;;;8.49;100.00;97946.53;6180436;23;19978;-89
2022/11/22 18:48:13;;;;;;;;;;;;;;;8.51;100.00;97949.91;6179291;23;19935;-87
2022/11/22 18:50:38;;;;;;;;;;;;;;;8.53;100.00;97942.72;6180714;23;20328;-90
2022/11/22 18:53:03;;;;;;;;;;;;;;;8.58;100.00;97952.16;6180294;23;19908;-94
2022/11/22 18:55:29;;;;;;;;;;;;;;;8.59;100.00;97953.88;6205436;23;20329;-94
2022/11/22 18:57:54;;;;;;;;;;;;;;;8.61;100.00;97958.09;6181359;23;19955;-91
2022/11/22 19:02:53;;;;;;;;;;;;;;;8.65;100.00;97966.69;6332601;22;19918;-91
2022/11/22 19:05:19;;;;;;;;;;;;;;;8.64;100.00;97973.72;6170522;22;19996;-89
2022/11/22 19:07:47;;;;;;;;;;;;;;;8.66;100.00;97984.19;6254028;22;20002;-89
2022/11/22 19:10:20;;;;;;;;;;;;;;;8.69;100.00;97981.38;6277790;22;20038;-90
2022/11/22 19:12:48;;;;;;;;;;;;;;;8.71;100.00;97985.63;6252907;22;19993;-91
2022/11/22 19:15:15;;;;;;;;;;;;;;;8.73;100.00;97974.94;6150747;23;19938;-91
2022/11/22 19:20:57;;;;;;;;;;;;;;;8.77;100.00;97980.88;6148465;22;19932;-89
2022/11/22 19:23:22;;;;;;;;;;;;;;;8.79;100.00;97974.56;6270249;22;19995;-93
2022/11/22 19:25:49;;;;;;;;;;;;;;;8.79;100.00;97974.56;6252401;22;20535;-89
2022/11/22 19:31:08;;;;;;;;;;;;;;;8.80;100.00;97973.59;6122605;23;20008;-91
2022/11/22 19:33:33;;;;;;;;;;;;;;;8.84;100.00;97977.75;6223129;23;20004;-90
2022/11/22 19:36:00;;;;;;;;;;;;;;;8.84;100.00;97968.97;6223518;23;19941;-88
2022/11/22 19:38:28;;;;;;;;;;;;;;;8.86;100.00;97967.91;6120728;23;19992;-87
2022/11/22 19:40:53;;;;;;;;;;;;;;;8.87;100.00;97958.19;6222845;23;19917;-86
2022/11/22 19:43:18;;;;;;;;;;;;;;;8.88;100.00;97958.09;6222731;23;20018;-89
2022/11/22 19:45:44;;;;;;;;;;;;;;;7.75;100.00;97963.38;6121311;23;19952;-88
2022/11/22 19:48:11;;;;;;;;;;;;;;;6.70;100.00;97979.97;6121454;23;20245;-87
2022/11/22 19:53:33;;;;;;;;;;;;;;;6.08;100.00;97985.97;6149072;22;19982;-88
2022/11/22 19:56:15;;;;;;;;;;;;;;;6.00;100.00;97989.00;6253781;22;19916;-89
2022/11/22 19:58:41;;;;;;;;;;;;;;;5.82;100.00;97984.66;6279936;22;20003;-86